Share

Adana, Turkey

3:21 PM EEST on April 23, 2014 (GMT +0300)
Adana (LTAF) Elev 66 ft | 36.98 °N, 35.30 °E | Change Station

Current weather conditions updated 31 minutes ago

Partly Cloudy
Partly Cloudy
81 °F
Feels Like 80 °F
N
6
Wind Variable Wind from South
Sunrise 5:54 AM
Sunset 7:20 PM
Moon Last Quarter

Today is forecast to be Warmer than yesterday.

Pressure 29.98 in
Visibility 6.2 miles
Clouds Few 4000 ft
Heat Index 80 °F
Dew Point 54 °F
Humidity 39%
Rainfall 0.00 in
Snow Depth Not available.
UV 8 out of 16
Pollen Not available.
Air Quality Not available.
Flu Activity Not available.
METAR LTAF 231150Z 18005KT 060V220 9999 FEW040 27/12 Q1015 NOSIG

More Conditions Fewer Conditions

Pressure 29.98 in
Visibility 6.2 miles
Clouds Few 4000 ft
Heat Index 80 °F
Dew Point 54 °F
Humidity 39%
Rainfall 0.00 in
Snow Depth Not available.
UV 8 out of 16
Pollen Not available.
Air Quality Not available.
Flu Activity Not available.
METAR LTAF 231150Z 18005KT 060V220 9999 FEW040 27/12 Q1015 NOSIG

More Conditions Fewer Conditions

10-Day Weather Forecast

Almanac

Astronomy

Apr. 23, 2014 Rise Set
Actual Time 5:54 AM EEST 7:20 PM EEST
Civil Twilight 5:27 AM EEST 7:47 PM EEST
Nautical Twilight 4:54 AM EEST 8:20 PM EEST
Astronomical Twilight 4:20 AM EEST 8:54 PM EEST
Moon 2:02 AM EEST 1:14 PM EEST
Length of Visible Light 14h 20m
Length of Day
13h 25m
Tomorrow will be 2m 9s longer.
Last Quarter, 37% of the Moon is Illuminated
Today
Last Quarter
Apr 29
New
May 6
First Quarter
May 14
Full
May 21
Last Quarter

Yesterday's Extremes

Country Highs Country Lows

Community

  • April Sunset
    April Sunset
  • Waiting..
    Waiting..
  • Sunset...
    Sunset...
  • Happy outdoor day
    Happy outdoor day
  • mystic afternoon....
    mystic afternoon....

WunderPhotos

Upload Photos

1,704,256 photos uploaded!

Nearby

Snow Depth

Not available.

Coastal Water Temperatures

Place Temperature
No Stations Reporting

Earthquake Activity

City Distance Mag. Time & Date
No recent earthquake activity has been reported nearby.
Minimum magnitude displayed is 2.5.

Nearby Weather Stations

There are no personal weather stations in this area.

What do you think?

We're not finished. Please let us know what you like, what you don't like, and what you are still missing.